Flight Track Log - Related Links

Times and Time Zones

All times are in EST time to prevent confusion due to time zone crossing. See the AAY855 flight status page for this flight to view local times or setup timezone preferences in your user account.

Time Position Orientation Groundspeed Altitude Reporting Facility
EST Latitude Longitude Course Direction KTS MPH feet Rate Location/Type
Fri 09:33:33 PM 41.5134 -86.2215 174° South 301 346 10,200  Level FlightAware ADS-B
Fri 09:34:05 PM 41.4666 -86.2158 175° South 337 388 10,900 2,175 Climbing FlightAware ADS-B
Fri 09:34:53 PM 41.3903 -86.2013 172° South 349 402 13,100 2,741 Climbing FlightAware ADS-B
Fri 09:35:26 PM 41.3381 -86.1898 171° South 351 404 14,600 2,368 Climbing FlightAware ADS-B
Fri 09:36:09 PM 41.2677 -86.1764 172° South 363 418 16,100 2,000 Climbing FlightAware ADS-B
Fri 09:36:53 PM 41.1919 -86.1633 173° South 379 436 17,500 2,241 Climbing FlightAware ADS-B
Fri 09:37:32 PM 41.1258 -86.1500 171° South 376 433 19,200 2,074 Climbing FlightAware ADS-B
Fri 09:38:14 PM 41.0850 -86.1422 172° South 390 449 20,300 1,778 Climbing FlightAware ADS-B
Fri 09:38:53 PM 40.9851 -86.1238 172° South 398 458 21,600 2,077 Climbing FlightAware ADS-B
Fri 09:39:32 PM 40.9134 -86.1101 172° South 396 456 23,000 1,890 Climbing FlightAware ADS-B
Fri 09:40:06 PM 40.8484 -86.0975 172° South 405 466 23,900 1,782 Climbing FlightAware ADS-B
Fri 09:41:13 PM 40.7242 -86.0720 171° South 405 466 26,000 1,585 Climbing FlightAware ADS-B
Fri 09:42:45 PM 40.5631 -86.0411 172° South 414 476 28,100 1,333 Climbing FlightAware ADS-B
Fri 09:43:19 PM 40.4870 -86.0266 172° South 417 480 28,800 1,102 Climbing FlightAware ADS-B
Fri 09:44:23 PM 40.3877 -86.0080 172° South 428 493 29,900 992 Climbing FlightAware ADS-B
Fri 09:45:20 PM 40.2583 -85.9842 172° South 431 496 30,800 1,373 Climbing Chicago Center
Fri 09:46:21 PM 40.1408 -85.9622 172° South 428 493 32,600 979 Climbing Chicago Center
Fri 09:51:40 PM 39.5224 -85.8465 172° South 412 474 37,000 693 Climbing FlightAware ADS-B
Fri 09:52:42 PM 39.4057 -85.8250 172° South 411 473 37,000  Level FlightAware ADS-B
Fri 09:53:36 PM 39.3041 -85.8066 172° South 415 478 37,000  Level FlightAware ADS-B
Fri 09:54:42 PM 39.1843 -85.7842 172° South 404 465 37,000  Level FlightAware ADS-B
Fri 09:55:42 PM 39.0692 -85.7632 172° South 396 456 37,000 -51 Level FlightAware ADS-B
Fri 09:56:40 PM 38.9649 -85.7443 172° South 391 450 36,900 -51 Descending FlightAware ADS-B
Fri 09:57:39 PM 38.8581 -85.7251 172° South 393 452 36,900 49 Level FlightAware ADS-B
Fri 09:58:42 PM 38.7483 -85.7052 172° South 392 451 37,000 48 Climbing FlightAware ADS-B
Fri 09:59:43 PM 38.6370 -85.6852 172° South 390 449 37,000  Level FlightAware ADS-B
Fri 10:00:40 PM 38.5346 -85.6667 172° South 389 448 37,000  Level FlightAware ADS-B
Fri 10:01:34 PM 38.4373 -85.6494 172° South 389 448 37,000  Level FlightAware ADS-B (YPEF)
Fri 10:02:26 PM 38.3489 -85.6336 172° South 389 448 37,000  Level FlightAware ADS-B
Fri 10:03:04 PM 38.2771 -85.6208 172° South 388 447 37,000  Level FlightAware ADS-B (YPEF)
Fri 10:03:35 PM 38.2220 -85.6110 172° South 388 447 37,000  Level FlightAware ADS-B (YPEF)
Fri 10:04:20 PM 38.1627 -85.6006 172° South 388 447 37,000  Level FlightAware ADS-B (YPEF)
Fri 10:05:04 PM 38.0633 -85.5828 172° South 388 447 37,000  Level FlightAware ADS-B (YPEF)
Fri 10:05:42 PM 37.9959 -85.5709 172° South 388 447 37,000  Level FlightAware ADS-B
Fri 10:06:19 PM 37.9315 -85.5594 172° South 387 445 37,000  Level FlightAware ADS-B (YPEF)
Fri 10:07:04 PM 37.8509 -85.5453 172° South 387 445 37,000  Level FlightAware ADS-B (YPEF)
Fri 10:07:34 PM 37.7982 -85.5359 172° South 387 445 37,000  Level FlightAware ADS-B (YPEF)
Fri 10:08:05 PM 37.7425 -85.5261 172° South 389 448 37,000  Level FlightAware ADS-B (YPEF)
Fri 10:08:35 PM 37.6888 -85.5168 172° South 389 448 37,000  Level FlightAware ADS-B (YPEF)
Fri 10:09:20 PM 37.6091 -85.5030 172° South 391 450 37,000  Level FlightAware ADS-B (YPEF)
Fri 10:09:50 PM 37.5546 -85.4935 172° South 391 450 37,000  Level FlightAware ADS-B (YPEF)
Fri 10:10:20 PM 37.5020 -85.4843 172° South 391 450 37,000  Level FlightAware ADS-B (YPEF)
Fri 10:11:03 PM 37.4244 -85.4708 172° South 390 449 37,000  Level FlightAware ADS-B (YPEF)
Fri 10:11:34 PM 37.3690 -85.4611 172° South 387 445 37,000  Level FlightAware ADS-B (YPEF)
Fri 10:12:04 PM 37.3158 -85.4520 172° South 385 443 37,000  Level FlightAware ADS-B (YPEF)
Fri 10:12:34 PM 37.2638 -85.4431 172° South 383 441 37,000 -98 Level FlightAware ADS-B (YPEF)
Fri 10:13:05 PM 37.2157 -85.4348 172° South 385 443 36,900  Descending FlightAware ADS-B (YPEF)
Fri 10:13:43 PM 37.1524 -85.4236 172° South 385 443 37,000 82 Climbing FlightAware ADS-B
Fri 10:14:18 PM 37.0786 -85.4107 172° South 386 444 37,000  Level FlightAware ADS-B (YPEF)
Fri 10:15:04 PM 36.9968 -85.3967 172° South 386 444 37,000  Level FlightAware ADS-B (YPEF)
Fri 10:15:50 PM 36.9337 -85.3860 172° South 385 443 37,000  Level FlightAware ADS-B (YPEF)
Fri 10:16:35 PM 36.8362 -85.3692 172° South 382 440 37,000  Level FlightAware ADS-B (YPEF)
Fri 10:17:05 PM 36.7856 -85.3606 172° South 380 437 37,000  Level FlightAware ADS-B (YPEF)
Fri 10:17:36 PM 36.7311 -85.3514 172° South 380 437 37,000  Level FlightAware ADS-B (YPEF)
Fri 10:18:42 PM 36.6156 -85.3317 172° South 383 441 37,000  Level FlightAware ADS-B
Fri 10:19:21 PM 36.5467 -85.3200 172° South 384 442 37,000  Level FlightAware ADS-B (YPEF)
Fri 10:19:51 PM 36.4944 -85.3111 172° South 385 443 37,000  Level FlightAware ADS-B (YPEF)
Fri 10:20:21 PM 36.4557 -85.3045 172° South 386 444 37,000  Level FlightAware ADS-B (YPEF)
Fri 10:20:51 PM 36.3906 -85.2934 172° South 386 444 37,000  Level FlightAware ADS-B (YPEF)
Fri 10:21:25 PM 36.3268 -85.2826 172° South 386 444 37,000  Level FlightAware ADS-B (YPEF)
Fri 10:22:35 PM 36.2048 -85.2621 172° South 385 443 37,000  Level FlightAware ADS-B (YPEF)
Fri 10:23:06 PM 36.1481 -85.2527 172° South 384 442 37,000  Level FlightAware ADS-B (YPEF)
Fri 10:23:43 PM 36.0905 -85.2430 172° South 385 443 37,000  Level FlightAware ADS-B
Fri 10:24:19 PM 36.0201 -85.2311 172° South 385 443 37,000 -55 Level FlightAware ADS-B (YPEF)
Fri 10:25:32 PM 35.9008 -85.2108 172° South 385 443 36,900  Descending Indianapolis Center
Fri 10:26:33 PM 35.7950 -85.1936 172° South 387 445 37,000 49 Climbing Indianapolis Center
Fri 10:27:34 PM 35.6881 -85.1756 172° South 390 449 37,000  Level Indianapolis Center
Fri 10:28:35 PM 35.5806 -85.1572 172° South 392 451 37,000  Level Indianapolis Center
Fri 10:34:05 PM 34.9021 -85.0466 172° South 392 451 37,000  Level FlightAware ADS-B (KDZJ)
Fri 10:34:41 PM 34.8366 -85.0357 172° South 393 452 37,000  Level FlightAware ADS-B (KDZJ)
Fri 10:35:25 PM 34.7550 -85.0228 173° South 402 463 37,000  Level FlightAware ADS-B (KDZJ)
Fri 10:35:56 PM 34.6986 -85.0137 172° South 404 465 37,000  Level FlightAware ADS-B (KDZJ)
Fri 10:36:42 PM 34.6130 -84.9998 172° South 405 466 37,000  Level FlightAware ADS-B (KDZJ)
Fri 10:37:14 PM 34.5522 -84.9898 172° South 406 467 37,000  Level FlightAware ADS-B (KDZJ)
Fri 10:37:51 PM 34.4835 -84.9788 172° South 408 470 37,000  Level FlightAware ADS-B (KDZJ)
Fri 10:38:22 PM 34.4258 -84.9696 172° South 408 470 37,000  Level FlightAware ADS-B (KDZJ)
Fri 10:38:52 PM 34.3693 -84.9604 172° South 409 471 37,000  Level FlightAware ADS-B (KDZJ)
Fri 10:39:22 PM 34.3135 -84.9514 172° South 409 471 37,000  Level FlightAware ADS-B (KDZJ)
Fri 10:40:45 PM 34.1568 -84.9265 172° South 404 465 37,000  Level FlightAware ADS-B (KDZJ)
Fri 10:41:25 PM 34.0810 -84.9145 173° South 403 464 37,000  Level FlightAware ADS-B (KDZJ)
Fri 10:42:06 PM 34.0047 -84.9021 172° South 404 465 37,000  Level FlightAware ADS-B (KDZJ)
Fri 10:42:45 PM 33.9294 -84.8902 172° South 403 464 37,000  Level FlightAware ADS-B (KDZJ)
Fri 10:43:26 PM 33.8537 -84.8780 172° South 409 471 37,000  Level FlightAware ADS-B (KDZJ)
Fri 10:44:03 PM 33.7839 -84.8665 172° South 411 473 37,000  Level FlightAware ADS-B (KDZJ)
Fri 10:44:45 PM 33.7831 -84.8711 172° South 410 472 37,000  Level Atlanta Center
Fri 10:45:45 PM 33.6706 -84.8425 168° South 410 472 37,000  Level Atlanta Center
Fri 10:46:45 PM 33.5581 -84.8117 167° South 410 472 37,000  Level Atlanta Center
Fri 10:47:45 PM 33.4497 -84.7833 168° South 410 472 37,000 -50 Level Atlanta Center
Fri 10:48:45 PM 33.3392 -84.7550 168° South 410 472 36,900  Descending Atlanta Center
Fri 10:49:45 PM 33.2308 -84.7267 168° South 410 472 37,000 50 Climbing Atlanta Center
Fri 10:50:45 PM 33.1203 -84.7011 169° South 410 472 37,000  Level Atlanta Center
Fri 10:51:45 PM 32.9994 -84.6728 169° South 410 472 37,000  Level Atlanta Center
Fri 10:52:45 PM 32.8911 -84.6472 169° South 410 472 37,000  Level Atlanta Center
Fri 10:53:45 PM 32.8036 -84.6219 166° South 410 472 37,000  Level Atlanta Center
Fri 10:54:45 PM 32.6825 -84.5892 167° South 410 472 37,000  Level Atlanta Center
Fri 10:55:45 PM 32.5719 -84.5614 168° South 410 472 37,000  Level Atlanta Center
Fri 10:56:45 PM 32.4636 -84.5336 168° South 410 472 37,000  Level Atlanta Center
Fri 10:57:45 PM 32.3553 -84.5083 169° South 410 472 37,000  Level Atlanta Center
Fri 10:58:45 PM 32.2447 -84.4808 168° South 410 472 37,000  Level Atlanta Center
Fri 11:00:35 PM 32.0486 -84.4319 168° South 393 452 37,000  Level Jacksonville Center
Fri 11:01:35 PM 31.9383 -84.4031 167° South 393 452 37,000  Level Jacksonville Center
Fri 11:02:35 PM 31.8300 -84.3769 168° South 398 458 37,000  Level Jacksonville Center
Fri 11:03:35 PM 31.7217 -84.3508 168° South 398 458 37,000  Level Jacksonville Center
Fri 11:04:35 PM 31.5989 -84.3219 169° South 405 466 37,000  Level Jacksonville Center
Fri 11:05:35 PM 31.4886 -84.2933 168° South 410 472 37,000  Level Jacksonville Center
Fri 11:06:35 PM 31.3803 -84.2675 168° South 410 472 37,000  Level Jacksonville Center
Fri 11:07:35 PM 31.2678 -84.2392 168° South 410 472 37,000  Level Jacksonville Center
Fri 11:08:35 PM 31.1553 -84.2133 169° South 410 472 37,000  Level Jacksonville Center
Fri 11:09:35 PM 31.0431 -84.1850 168° South 410 472 37,000  Level Jacksonville Center
Fri 11:10:35 PM 30.9325 -84.1592 169° South 410 472 37,000  Level Jacksonville Center
Fri 11:11:35 PM 30.8200 -84.1336 169° South 410 472 37,000  Level Jacksonville Center
Fri 11:12:35 PM 30.7056 -84.1056 168° South 410 472 37,000  Level Jacksonville Center
Fri 11:13:35 PM 30.5950 -84.0775 168° South 410 472 37,000  Level Jacksonville Center
Fri 11:14:35 PM 30.4950 -84.0569 170° South 410 472 37,000 -50 Level Jacksonville Center
Fri 11:15:35 PM 30.3847 -84.0267 167° South 410 472 36,900 -50 Descending Jacksonville Center
Fri 11:16:35 PM 30.2722 -84.0014 169° South 410 472 36,900  Level Jacksonville Center
Fri 11:17:35 PM 30.1556 -83.9736 168° South 417 480 36,900  Level Jacksonville Center
Fri 11:18:35 PM 30.0431 -83.9458 168° South 417 480 36,900  Level Jacksonville Center
Fri 11:19:35 PM 29.9303 -83.9208 169° South 417 480 36,900  Level Jacksonville Center
Fri 11:20:35 PM 29.8158 -83.8931 168° South 417 480 36,900 -200 Level Jacksonville Center
Fri 11:21:35 PM 29.7056 -83.8250 152° Southeast 423 487 36,500 -900 Descending Jacksonville Center
Fri 11:22:35 PM 29.5956 -83.7525 150° Southeast 441 507 35,100 -1,800 Descending Jacksonville Center
Fri 11:23:35 PM 29.4917 -83.6847 150° Southeast 441 507 32,900 -2,450 Descending Jacksonville Center
Fri 11:24:35 PM 29.3753 -83.6100 151° Southeast 441 507 30,200 -2,450 Descending Jacksonville Center
Fri 11:25:35 PM 29.2733 -83.5425 150° Southeast 431 496 28,000 -2,050 Descending Jacksonville Center
Fri 11:26:35 PM 29.1733 -83.4800 151° Southeast 424 488 26,100 -1,800 Descending Jacksonville Center
Fri 11:27:35 PM 29.0756 -83.4178 151° Southeast 412 474 24,400 -1,700 Descending Jacksonville Center
Fri 11:28:35 PM 28.9797 -83.3553 150° Southeast 412 474 22,700 -1,650 Descending Jacksonville Center
Fri 11:29:35 PM 28.8858 -83.2981 152° Southeast 398 458 21,100 -1,600 Descending Jacksonville Center
Fri 11:30:35 PM 28.7922 -83.2386 151° Southeast 392 451 19,500 -1,551 Descending Jacksonville Center
Fri 11:33:00 PM 28.5833 -83.1000 150° Southeast 352 405 15,800 -1,522 Descending Tampa TRACON
Fri 11:34:00 PM 28.5000 -83.0500 152° Southeast 348 400 14,300 -1,400 Descending Tampa TRACON
Fri 11:35:00 PM 28.4167 -83.0000 152° Southeast 336 387 13,000 -1,300 Descending Tampa TRACON
Fri 11:36:00 PM 28.3333 -82.9500 152° Southeast 311 358 11,700 -1,250 Descending Tampa TRACON
Fri 11:37:00 PM 28.2667 -82.9000 147° Southeast 300 345 10,500 -850 Descending Tampa TRACON
Fri 11:38:00 PM 28.1833 -82.8667 161° South 280 322 10,000 -1,000 Descending Tampa TRACON
Fri 11:39:00 PM 28.1167 -82.8500 168° South 281 323 8,500 -1,550 Descending Tampa TRACON
Fri 11:40:00 PM 28.0333 -82.8333 170° South 273 314 6,900 -1,636 Descending Tampa TRACON
Fri 11:41:01 PM 27.9667 -82.8333 180° South 268 308 5,200 -1,438 Descending Tampa TRACON
Fri 11:42:01 PM 27.8833 -82.8167 170° South 261 300 4,000 -1,050 Descending Tampa TRACON
Fri 11:43:01 PM 27.8167 -82.8167 180° South 256 295 3,100 -600 Descending Tampa TRACON
Fri 11:44:01 PM 27.7667 -82.8000 164° South 210 242 2,800 -450 Descending Tampa TRACON
Fri 11:45:01 PM 27.7333 -82.7500 127° Southeast 205 236 2,200 -400 Descending Tampa TRACON
Fri 11:46:01 PM 27.7167 -82.6833 106° East 191 220 2,000 -100 Descending Tampa TRACON
Fri 11:47:01 PM 27.7500 -82.6667 24° Northeast 195 224 2,000 -100 Level Tampa TRACON
Fri 11:48:01 PM 27.8000 -82.6667 360° North 185 213 1,800 -500 Descending Tampa TRACON
Fri 11:49:01 PM 27.8500 -82.6833 344° North 154 177 1,000 -750 Descending Tampa TRACON
Fri 11:50:01 PM 27.8833 -82.6833 360° North 126 145 300 -700 Descending Tampa TRACON

Login

Don't have an account? Register now (free) for customized features, flight alerts, and more!